sensor_id;sensor_type;location;lat;lon;timestamp;P1;P2;P0
47079;PMS5003;33067;49.296;14.470;2023-08-20T00:01:58;30;29;
47079;PMS5003;33067;49.296;14.470;2023-08-20T00:04:25;34;29;
47079;PMS5003;33067;49.296;14.470;2023-08-20T00:06:49;30;29;
47079;PMS5003;33067;49.296;14.470;2023-08-20T00:09:14;35;33;
47079;PMS5003;33067;49.296;14.470;2023-08-20T00:11:39;28;26;
47079;PMS5003;33067;49.296;14.470;2023-08-20T00:14:05;28;28;
47079;PMS5003;33067;49.296;14.470;2023-08-20T00:16:30;29;29;
47079;PMS5003;33067;49.296;14.470;2023-08-20T00:18:56;27;27;
47079;PMS5003;33067;49.296;14.470;2023-08-20T00:21:21;29;28;
47079;PMS5003;33067;49.296;14.470;2023-08-20T00:23:46;32;32;
47079;PMS5003;33067;49.296;14.470;2023-08-20T00:26:13;30;27;
47079;PMS5003;33067;49.296;14.470;2023-08-20T00:28:39;34;32;
47079;PMS5003;33067;49.296;14.470;2023-08-20T00:31:03;23;23;
47079;PMS5003;33067;49.296;14.470;2023-08-20T00:33:29;33;33;
47079;PMS5003;33067;49.296;14.470;2023-08-20T00:35:54;28;26;
47079;PMS5003;33067;49.296;14.470;2023-08-20T00:38:20;34;33;
47079;PMS5003;33067;49.296;14.470;2023-08-20T00:40:45;29;29;
47079;PMS5003;33067;49.296;14.470;2023-08-20T00:43:11;34;32;
47079;PMS5003;33067;49.296;14.470;2023-08-20T00:45:36;30;29;
47079;PMS5003;33067;49.296;14.470;2023-08-20T00:48:02;32;32;
47079;PMS5003;33067;49.296;14.470;2023-08-20T00:50:27;28;28;
47079;PMS5003;33067;49.296;14.470;2023-08-20T00:52:53;34;34;
47079;PMS5003;33067;49.296;14.470;2023-08-20T00:55:18;31;30;
47079;PMS5003;33067;49.296;14.470;2023-08-20T00:57:43;34;32;
47079;PMS5003;33067;49.296;14.470;2023-08-20T01:00:09;27;26;
47079;PMS5003;33067;49.296;14.470;2023-08-20T01:02:35;27;26;
47079;PMS5003;33067;49.296;14.470;2023-08-20T01:05:00;25;24;
47079;PMS5003;33067;49.296;14.470;2023-08-20T01:07:27;30;29;
47079;PMS5003;33067;49.296;14.470;2023-08-20T01:09:54;27;27;
47079;PMS5003;33067;49.296;14.470;2023-08-20T01:12:17;32;32;
47079;PMS5003;33067;49.296;14.470;2023-08-20T01:14:42;32;30;
47079;PMS5003;33067;49.296;14.470;2023-08-20T01:17:08;30;29;
47079;PMS5003;33067;49.296;14.470;2023-08-20T01:19:35;30;29;
47079;PMS5003;33067;49.296;14.470;2023-08-20T01:22:04;32;32;
47079;PMS5003;33067;49.296;14.470;2023-08-20T01:24:30;29;29;
47079;PMS5003;33067;49.296;14.470;2023-08-20T01:29:16;28;28;
47079;PMS5003;33067;49.296;14.470;2023-08-20T01:31:43;26;26;
47079;PMS5003;33067;49.296;14.470;2023-08-20T01:34:07;28;26;
47079;PMS5003;33067;49.296;14.470;2023-08-20T01:36:33;36;35;
47079;PMS5003;33067;49.296;14.470;2023-08-20T01:38:59;32;31;
47079;PMS5003;33067;49.296;14.470;2023-08-20T01:41:24;31;29;
47079;PMS5003;33067;49.296;14.470;2023-08-20T01:43:50;32;30;
47079;PMS5003;33067;49.296;14.470;2023-08-20T01:46:15;29;28;
47079;PMS5003;33067;49.296;14.470;2023-08-20T01:48:40;29;29;
47079;PMS5003;33067;49.296;14.470;2023-08-20T01:51:06;32;32;
47079;PMS5003;33067;49.296;14.470;2023-08-20T01:53:31;33;33;
47079;PMS5003;33067;49.296;14.470;2023-08-20T01:55:56;31;30;
47079;PMS5003;33067;49.296;14.470;2023-08-20T01:58:22;32;31;
47079;PMS5003;33067;49.296;14.470;2023-08-20T02:00:47;35;35;
47079;PMS5003;33067;49.296;14.470;2023-08-20T02:03:12;29;28;
47079;PMS5003;33067;49.296;14.470;2023-08-20T02:05:40;35;32;
47079;PMS5003;33067;49.296;14.470;2023-08-20T02:08:03;31;29;
47079;PMS5003;33067;49.296;14.470;2023-08-20T02:12:59;28;27;
47079;PMS5003;33067;49.296;14.470;2023-08-20T02:15:25;29;29;
47079;PMS5003;33067;49.296;14.470;2023-08-20T02:17:50;32;30;
47079;PMS5003;33067;49.296;14.470;2023-08-20T02:20:16;28;27;
47079;PMS5003;33067;49.296;14.470;2023-08-20T02:22:42;35;35;
47079;PMS5003;33067;49.296;14.470;2023-08-20T02:25:07;31;29;
47079;PMS5003;33067;49.296;14.470;2023-08-20T02:27:33;28;28;
47079;PMS5003;33067;49.296;14.470;2023-08-20T02:29:58;32;32;
47079;PMS5003;33067;49.296;14.470;2023-08-20T02:32:23;34;33;
47079;PMS5003;33067;49.296;14.470;2023-08-20T02:34:49;38;38;
47079;PMS5003;33067;49.296;14.470;2023-08-20T02:37:14;33;32;
47079;PMS5003;33067;49.296;14.470;2023-08-20T02:39:39;36;34;
47079;PMS5003;33067;49.296;14.470;2023-08-20T02:42:05;34;34;
47079;PMS5003;33067;49.296;14.470;2023-08-20T02:44:30;33;29;
47079;PMS5003;33067;49.296;14.470;2023-08-20T02:46:55;30;30;
47079;PMS5003;33067;49.296;14.470;2023-08-20T02:49:20;30;30;
47079;PMS5003;33067;49.296;14.470;2023-08-20T02:51:45;36;34;
47079;PMS5003;33067;49.296;14.470;2023-08-20T02:54:10;29;29;
47079;PMS5003;33067;49.296;14.470;2023-08-20T02:56:36;33;33;
47079;PMS5003;33067;49.296;14.470;2023-08-20T02:59:01;34;33;
47079;PMS5003;33067;49.296;14.470;2023-08-20T03:01:27;31;31;
47079;PMS5003;33067;49.296;14.470;2023-08-20T03:03:52;26;25;
47079;PMS5003;33067;49.296;14.470;2023-08-20T03:06:17;36;35;
47079;PMS5003;33067;49.296;14.470;2023-08-20T03:08:43;32;31;
47079;PMS5003;33067;49.296;14.470;2023-08-20T03:11:08;30;28;
47079;PMS5003;33067;49.296;14.470;2023-08-20T03:13:33;32;32;
47079;PMS5003;33067;49.296;14.470;2023-08-20T03:15:58;36;33;
47079;PMS5003;33067;49.296;14.470;2023-08-20T03:18:24;36;36;
47079;PMS5003;33067;49.296;14.470;2023-08-20T03:20:49;33;30;
47079;PMS5003;33067;49.296;14.470;2023-08-20T03:23:14;35;34;
47079;PMS5003;33067;49.296;14.470;2023-08-20T03:25:40;30;30;
47079;PMS5003;33067;49.296;14.470;2023-08-20T03:28:05;32;30;
47079;PMS5003;33067;49.296;14.470;2023-08-20T03:30:30;30;29;
47079;PMS5003;33067;49.296;14.470;2023-08-20T03:32:56;32;31;
47079;PMS5003;33067;49.296;14.470;2023-08-20T03:35:22;32;32;
47079;PMS5003;33067;49.296;14.470;2023-08-20T03:37:47;34;31;
47079;PMS5003;33067;49.296;14.470;2023-08-20T03:40:13;34;34;
47079;PMS5003;33067;49.296;14.470;2023-08-20T03:42:38;33;33;
47079;PMS5003;33067;49.296;14.470;2023-08-20T03:45:04;36;35;
47079;PMS5003;33067;49.296;14.470;2023-08-20T03:47:29;29;28;
47079;PMS5003;33067;49.296;14.470;2023-08-20T03:49:54;29;29;
47079;PMS5003;33067;49.296;14.470;2023-08-20T03:52:20;33;33;
47079;PMS5003;33067;49.296;14.470;2023-08-20T03:54:45;29;29;
47079;PMS5003;33067;49.296;14.470;2023-08-20T03:57:10;33;33;
47079;PMS5003;33067;49.296;14.470;2023-08-20T03:59:36;31;31;
47079;PMS5003;33067;49.296;14.470;2023-08-20T04:02:01;27;26;
47079;PMS5003;33067;49.296;14.470;2023-08-20T04:04:27;40;37;
47079;PMS5003;33067;49.296;14.470;2023-08-20T04:06:52;35;35;
47079;PMS5003;33067;49.296;14.470;2023-08-20T04:09:17;33;33;
47079;PMS5003;33067;49.296;14.470;2023-08-20T04:11:43;33;30;
47079;PMS5003;33067;49.296;14.470;2023-08-20T04:14:09;30;30;
47079;PMS5003;33067;49.296;14.470;2023-08-20T04:16:34;35;34;
47079;PMS5003;33067;49.296;14.470;2023-08-20T04:18:59;34;32;
47079;PMS5003;33067;49.296;14.470;2023-08-20T04:21:25;34;30;
47079;PMS5003;33067;49.296;14.470;2023-08-20T04:23:51;33;33;
47079;PMS5003;33067;49.296;14.470;2023-08-20T04:26:16;28;28;
47079;PMS5003;33067;49.296;14.470;2023-08-20T04:28:41;33;30;
47079;PMS5003;33067;49.296;14.470;2023-08-20T04:31:07;30;29;
47079;PMS5003;33067;49.296;14.470;2023-08-20T04:33:32;34;34;
47079;PMS5003;33067;49.296;14.470;2023-08-20T04:35:57;28;27;
47079;PMS5003;33067;49.296;14.470;2023-08-20T04:38:23;29;29;
47079;PMS5003;33067;49.296;14.470;2023-08-20T04:40:48;33;31;
47079;PMS5003;33067;49.296;14.470;2023-08-20T04:43:14;33;33;
47079;PMS5003;33067;49.296;14.470;2023-08-20T04:45:40;32;28;
47079;PMS5003;33067;49.296;14.470;2023-08-20T04:48:05;30;29;
47079;PMS5003;33067;49.296;14.470;2023-08-20T04:50:30;34;34;
47079;PMS5003;33067;49.296;14.470;2023-08-20T04:52:55;35;32;
47079;PMS5003;33067;49.296;14.470;2023-08-20T04:55:20;29;28;
47079;PMS5003;33067;49.296;14.470;2023-08-20T04:57:46;35;35;
47079;PMS5003;33067;49.296;14.470;2023-08-20T05:00:11;35;32;
47079;PMS5003;33067;49.296;14.470;2023-08-20T05:02:37;31;31;
47079;PMS5003;33067;49.296;14.470;2023-08-20T05:05:02;32;29;
47079;PMS5003;33067;49.296;14.470;2023-08-20T05:07:28;40;39;
47079;PMS5003;33067;49.296;14.470;2023-08-20T05:09:52;38;34;
47079;PMS5003;33067;49.296;14.470;2023-08-20T05:12:18;38;37;
47079;PMS5003;33067;49.296;14.470;2023-08-20T05:14:43;32;32;
47079;PMS5003;33067;49.296;14.470;2023-08-20T05:17:08;32;32;
47079;PMS5003;33067;49.296;14.470;2023-08-20T05:19:34;31;30;
47079;PMS5003;33067;49.296;14.470;2023-08-20T05:21:59;31;30;
47079;PMS5003;33067;49.296;14.470;2023-08-20T05:24:25;34;33;
47079;PMS5003;33067;49.296;14.470;2023-08-20T05:29:16;54;49;
47079;PMS5003;33067;49.296;14.470;2023-08-20T05:31:41;42;39;
47079;PMS5003;33067;49.296;14.470;2023-08-20T05:34:07;41;39;
47079;PMS5003;33067;49.296;14.470;2023-08-20T05:36:32;34;33;
47079;PMS5003;33067;49.296;14.470;2023-08-20T05:38:58;38;35;
47079;PMS5003;33067;49.296;14.470;2023-08-20T05:41:23;39;39;
47079;PMS5003;33067;49.296;14.470;2023-08-20T05:43:48;37;36;
47079;PMS5003;33067;49.296;14.470;2023-08-20T05:46:13;38;34;
47079;PMS5003;33067;49.296;14.470;2023-08-20T05:48:39;36;36;
47079;PMS5003;33067;49.296;14.470;2023-08-20T05:51:04;39;35;
47079;PMS5003;33067;49.296;14.470;2023-08-20T05:53:30;35;33;
47079;PMS5003;33067;49.296;14.470;2023-08-20T05:55:55;31;30;
47079;PMS5003;33067;49.296;14.470;2023-08-20T05:58:21;35;33;
47079;PMS5003;33067;49.296;14.470;2023-08-20T06:00:46;40;36;
47079;PMS5003;33067;49.296;14.470;2023-08-20T06:03:12;30;28;
47079;PMS5003;33067;49.296;14.470;2023-08-20T06:05:38;39;37;
47079;PMS5003;33067;49.296;14.470;2023-08-20T06:08:04;27;27;
47079;PMS5003;33067;49.296;14.470;2023-08-20T06:10:30;36;35;
47079;PMS5003;33067;49.296;14.470;2023-08-20T06:12:54;37;34;
47079;PMS5003;33067;49.296;14.470;2023-08-20T06:15:20;35;35;
47079;PMS5003;33067;49.296;14.470;2023-08-20T06:17:45;31;29;
47079;PMS5003;33067;49.296;14.470;2023-08-20T06:20:11;32;32;
47079;PMS5003;33067;49.296;14.470;2023-08-20T06:22:36;38;35;
47079;PMS5003;33067;49.296;14.470;2023-08-20T06:25:02;40;36;
47079;PMS5003;33067;49.296;14.470;2023-08-20T06:27:27;37;34;
47079;PMS5003;33067;49.296;14.470;2023-08-20T06:29:53;38;38;
47079;PMS5003;33067;49.296;14.470;2023-08-20T06:32:18;33;32;
47079;PMS5003;33067;49.296;14.470;2023-08-20T06:34:44;32;32;
47079;PMS5003;33067;49.296;14.470;2023-08-20T06:37:09;33;30;
47079;PMS5003;33067;49.296;14.470;2023-08-20T06:39:35;36;35;
47079;PMS5003;33067;49.296;14.470;2023-08-20T06:42:00;38;35;
47079;PMS5003;33067;49.296;14.470;2023-08-20T06:44:26;33;32;
47079;PMS5003;33067;49.296;14.470;2023-08-20T06:46:51;28;28;
47079;PMS5003;33067;49.296;14.470;2023-08-20T06:49:17;33;33;
47079;PMS5003;33067;49.296;14.470;2023-08-20T06:51:42;34;34;
47079;PMS5003;33067;49.296;14.470;2023-08-20T06:54:07;40;39;
47079;PMS5003;33067;49.296;14.470;2023-08-20T06:56:33;37;36;
47079;PMS5003;33067;49.296;14.470;2023-08-20T06:58:59;31;30;
47079;PMS5003;33067;49.296;14.470;2023-08-20T07:01:24;35;32;
47079;PMS5003;33067;49.296;14.470;2023-08-20T07:03:49;39;37;
47079;PMS5003;33067;49.296;14.470;2023-08-20T07:06:15;31;31;
47079;PMS5003;33067;49.296;14.470;2023-08-20T07:08:40;32;32;
47079;PMS5003;33067;49.296;14.470;2023-08-20T07:11:05;32;31;
47079;PMS5003;33067;49.296;14.470;2023-08-20T07:13:31;30;30;
47079;PMS5003;33067;49.296;14.470;2023-08-20T07:15:56;31;31;
47079;PMS5003;33067;49.296;14.470;2023-08-20T07:18:21;31;31;
47079;PMS5003;33067;49.296;14.470;2023-08-20T07:20:47;31;29;
47079;PMS5003;33067;49.296;14.470;2023-08-20T07:23:12;30;30;
47079;PMS5003;33067;49.296;14.470;2023-08-20T07:25:37;29;29;
47079;PMS5003;33067;49.296;14.470;2023-08-20T07:28:03;30;29;
47079;PMS5003;33067;49.296;14.470;2023-08-20T07:30:28;30;30;
47079;PMS5003;33067;49.296;14.470;2023-08-20T07:32:53;28;28;
47079;PMS5003;33067;49.296;14.470;2023-08-20T07:35:18;31;31;
47079;PMS5003;33067;49.296;14.470;2023-08-20T07:37:43;35;33;
47079;PMS5003;33067;49.296;14.470;2023-08-20T07:40:09;29;29;
47079;PMS5003;33067;49.296;14.470;2023-08-20T07:42:33;31;31;
47079;PMS5003;33067;49.296;14.470;2023-08-20T07:44:59;32;31;
47079;PMS5003;33067;49.296;14.470;2023-08-20T07:47:24;34;34;
47079;PMS5003;33067;49.296;14.470;2023-08-20T07:49:50;28;28;
47079;PMS5003;33067;49.296;14.470;2023-08-20T07:52:15;36;32;
47079;PMS5003;33067;49.296;14.470;2023-08-20T07:54:40;27;27;
47079;PMS5003;33067;49.296;14.470;2023-08-20T07:57:06;27;27;
47079;PMS5003;33067;49.296;14.470;2023-08-20T07:59:31;34;33;
47079;PMS5003;33067;49.296;14.470;2023-08-20T08:01:56;28;27;
47079;PMS5003;33067;49.296;14.470;2023-08-20T08:04:21;30;30;
47079;PMS5003;33067;49.296;14.470;2023-08-20T08:06:47;25;25;
47079;PMS5003;33067;49.296;14.470;2023-08-20T08:09:18;29;29;
47079;PMS5003;33067;49.296;14.470;2023-08-20T08:11:38;31;31;
47079;PMS5003;33067;49.296;14.470;2023-08-20T08:14:04;32;30;
47079;PMS5003;33067;49.296;14.470;2023-08-20T08:16:30;27;27;
47079;PMS5003;33067;49.296;14.470;2023-08-20T08:18:55;27;27;
47079;PMS5003;33067;49.296;14.470;2023-08-20T08:21:20;28;28;
47079;PMS5003;33067;49.296;14.470;2023-08-20T08:23:46;34;34;
47079;PMS5003;33067;49.296;14.470;2023-08-20T08:26:11;29;28;
47079;PMS5003;33067;49.296;14.470;2023-08-20T08:28:36;27;24;
47079;PMS5003;33067;49.296;14.470;2023-08-20T08:31:02;27;26;
47079;PMS5003;33067;49.296;14.470;2023-08-20T08:33:27;29;29;
47079;PMS5003;33067;49.296;14.470;2023-08-20T08:35:52;27;25;
47079;PMS5003;33067;49.296;14.470;2023-08-20T08:38:18;26;24;
47079;PMS5003;33067;49.296;14.470;2023-08-20T08:40:43;25;25;
47079;PMS5003;33067;49.296;14.470;2023-08-20T08:43:09;23;23;
47079;PMS5003;33067;49.296;14.470;2023-08-20T08:45:34;25;24;
47079;PMS5003;33067;49.296;14.470;2023-08-20T08:47:59;32;32;
47079;PMS5003;33067;49.296;14.470;2023-08-20T08:50:25;36;32;
47079;PMS5003;33067;49.296;14.470;2023-08-20T08:52:51;32;32;
47079;PMS5003;33067;49.296;14.470;2023-08-20T08:55:15;34;33;
47079;PMS5003;33067;49.296;14.470;2023-08-20T08:57:40;29;28;
47079;PMS5003;33067;49.296;14.470;2023-08-20T09:00:07;26;25;
47079;PMS5003;33067;49.296;14.470;2023-08-20T09:02:32;25;25;
47079;PMS5003;33067;49.296;14.470;2023-08-20T09:04:58;24;23;
47079;PMS5003;33067;49.296;14.470;2023-08-20T09:07:23;27;26;
47079;PMS5003;33067;49.296;14.470;2023-08-20T09:09:49;24;23;
47079;PMS5003;33067;49.296;14.470;2023-08-20T09:12:15;23;22;
47079;PMS5003;33067;49.296;14.470;2023-08-20T09:14:42;24;22;
47079;PMS5003;33067;49.296;14.470;2023-08-20T09:17:05;23;23;
47079;PMS5003;33067;49.296;14.470;2023-08-20T09:19:35;21;21;
47079;PMS5003;33067;49.296;14.470;2023-08-20T09:21:57;17;17;
47079;PMS5003;33067;49.296;14.470;2023-08-20T09:24:25;17;17;
47079;PMS5003;33067;49.296;14.470;2023-08-20T09:26:47;19;18;
47079;PMS5003;33067;49.296;14.470;2023-08-20T09:29:12;20;20;
47079;PMS5003;33067;49.296;14.470;2023-08-20T09:31:38;18;17;
47079;PMS5003;33067;49.296;14.470;2023-08-20T09:34:03;19;18;
47079;PMS5003;33067;49.296;14.470;2023-08-20T09:36:30;21;21;
47079;PMS5003;33067;49.296;14.470;2023-08-20T09:38:55;17;17;
47079;PMS5003;33067;49.296;14.470;2023-08-20T09:41:20;16;15;
47079;PMS5003;33067;49.296;14.470;2023-08-20T09:43:45;16;16;
47079;PMS5003;33067;49.296;14.470;2023-08-20T09:46:11;19;18;
47079;PMS5003;33067;49.296;14.470;2023-08-20T09:48:36;19;19;
47079;PMS5003;33067;49.296;14.470;2023-08-20T09:51:03;19;17;
47079;PMS5003;33067;49.296;14.470;2023-08-20T09:53:27;18;18;
47079;PMS5003;33067;49.296;14.470;2023-08-20T09:55:53;18;18;
47079;PMS5003;33067;49.296;14.470;2023-08-20T09:58:18;17;17;
47079;PMS5003;33067;49.296;14.470;2023-08-20T10:00:43;19;18;
47079;PMS5003;33067;49.296;14.470;2023-08-20T10:03:09;21;21;
47079;PMS5003;33067;49.296;14.470;2023-08-20T10:05:34;18;18;
47079;PMS5003;33067;49.296;14.470;2023-08-20T10:08:00;24;24;
47079;PMS5003;33067;49.296;14.470;2023-08-20T10:10:26;26;26;
47079;PMS5003;33067;49.296;14.470;2023-08-20T10:12:51;31;30;
47079;PMS5003;33067;49.296;14.470;2023-08-20T10:15:16;22;21;
47079;PMS5003;33067;49.296;14.470;2023-08-20T10:17:43;20;20;
47079;PMS5003;33067;49.296;14.470;2023-08-20T10:20:08;21;21;
47079;PMS5003;33067;49.296;14.470;2023-08-20T10:22:33;20;18;
47079;PMS5003;33067;49.296;14.470;2023-08-20T10:24:58;20;19;
47079;PMS5003;33067;49.296;14.470;2023-08-20T10:27:24;20;20;
47079;PMS5003;33067;49.296;14.470;2023-08-20T10:29:48;37;37;
47079;PMS5003;33067;49.296;14.470;2023-08-20T10:32:14;21;21;
47079;PMS5003;33067;49.296;14.470;2023-08-20T10:34:41;19;19;
47079;PMS5003;33067;49.296;14.470;2023-08-20T10:37:08;19;17;
47079;PMS5003;33067;49.296;14.470;2023-08-20T10:39:30;20;19;
47079;PMS5003;33067;49.296;14.470;2023-08-20T10:44:21;20;19;
47079;PMS5003;33067;49.296;14.470;2023-08-20T10:46:49;16;16;
47079;PMS5003;33067;49.296;14.470;2023-08-20T10:49:15;28;28;
47079;PMS5003;33067;49.296;14.470;2023-08-20T10:51:38;15;15;
47079;PMS5003;33067;49.296;14.470;2023-08-20T10:54:04;15;15;
47079;PMS5003;33067;49.296;14.470;2023-08-20T10:58:54;11;11;
47079;PMS5003;33067;49.296;14.470;2023-08-20T11:01:20;11;11;
47079;PMS5003;33067;49.296;14.470;2023-08-20T11:03:45;13;13;
47079;PMS5003;33067;49.296;14.470;2023-08-20T11:06:10;11;10;
47079;PMS5003;33067;49.296;14.470;2023-08-20T11:08:36;14;14;
47079;PMS5003;33067;49.296;14.470;2023-08-20T11:11:01;13;12;
47079;PMS5003;33067;49.296;14.470;2023-08-20T11:13:27;13;13;
47079;PMS5003;33067;49.296;14.470;2023-08-20T11:15:52;14;14;
47079;PMS5003;33067;49.296;14.470;2023-08-20T11:18:18;12;12;
47079;PMS5003;33067;49.296;14.470;2023-08-20T11:20:43;13;13;
47079;PMS5003;33067;49.296;14.470;2023-08-20T11:23:09;13;13;
47079;PMS5003;33067;49.296;14.470;2023-08-20T11:25:34;16;16;
47079;PMS5003;33067;49.296;14.470;2023-08-20T11:28:00;15;15;
47079;PMS5003;33067;49.296;14.470;2023-08-20T11:30:26;13;13;
47079;PMS5003;33067;49.296;14.470;2023-08-20T11:32:50;14;14;
47079;PMS5003;33067;49.296;14.470;2023-08-20T11:35:16;12;12;
47079;PMS5003;33067;49.296;14.470;2023-08-20T11:37:41;13;13;
47079;PMS5003;33067;49.296;14.470;2023-08-20T11:40:07;17;16;
47079;PMS5003;33067;49.296;14.470;2023-08-20T11:42:32;18;16;
47079;PMS5003;33067;49.296;14.470;2023-08-20T11:44:57;15;15;
47079;PMS5003;33067;49.296;14.470;2023-08-20T11:47:23;14;14;
47079;PMS5003;33067;49.296;14.470;2023-08-20T11:49:56;13;13;
47079;PMS5003;33067;49.296;14.470;2023-08-20T11:52:13;13;13;
47079;PMS5003;33067;49.296;14.470;2023-08-20T11:54:39;18;16;
47079;PMS5003;33067;49.296;14.470;2023-08-20T11:57:05;17;16;
47079;PMS5003;33067;49.296;14.470;2023-08-20T11:59:30;17;16;
47079;PMS5003;33067;49.296;14.470;2023-08-20T12:01:56;15;14;
47079;PMS5003;33067;49.296;14.470;2023-08-20T12:04:23;16;15;
47079;PMS5003;33067;49.296;14.470;2023-08-20T12:06:53;17;16;
47079;PMS5003;33067;49.296;14.470;2023-08-20T12:09:19;16;15;
47079;PMS5003;33067;49.296;14.470;2023-08-20T12:11:38;16;16;
47079;PMS5003;33067;49.296;14.470;2023-08-20T12:14:03;16;16;
47079;PMS5003;33067;49.296;14.470;2023-08-20T12:16:29;12;12;
47079;PMS5003;33067;49.296;14.470;2023-08-20T12:18:54;15;15;
47079;PMS5003;33067;49.296;14.470;2023-08-20T12:21:20;17;17;
47079;PMS5003;33067;49.296;14.470;2023-08-20T12:23:45;16;16;
47079;PMS5003;33067;49.296;14.470;2023-08-20T12:26:11;15;15;
47079;PMS5003;33067;49.296;14.470;2023-08-20T12:28:36;14;14;
47079;PMS5003;33067;49.296;14.470;2023-08-20T12:31:02;15;15;
47079;PMS5003;33067;49.296;14.470;2023-08-20T12:33:27;13;13;
47079;PMS5003;33067;49.296;14.470;2023-08-20T12:35:53;14;14;
47079;PMS5003;33067;49.296;14.470;2023-08-20T12:38:18;15;15;
47079;PMS5003;33067;49.296;14.470;2023-08-20T12:40:44;13;13;
47079;PMS5003;33067;49.296;14.470;2023-08-20T12:43:09;13;13;
47079;PMS5003;33067;49.296;14.470;2023-08-20T12:45:35;13;13;
47079;PMS5003;33067;49.296;14.470;2023-08-20T12:48:00;17;15;
47079;PMS5003;33067;49.296;14.470;2023-08-20T12:50:26;13;13;
47079;PMS5003;33067;49.296;14.470;2023-08-20T12:52:51;15;14;
47079;PMS5003;33067;49.296;14.470;2023-08-20T12:55:17;15;15;
47079;PMS5003;33067;49.296;14.470;2023-08-20T13:00:08;16;16;
47079;PMS5003;33067;49.296;14.470;2023-08-20T13:02:34;15;15;
47079;PMS5003;33067;49.296;14.470;2023-08-20T13:04:59;13;13;
47079;PMS5003;33067;49.296;14.470;2023-08-20T13:07:24;15;15;
47079;PMS5003;33067;49.296;14.470;2023-08-20T13:09:50;15;13;
47079;PMS5003;33067;49.296;14.470;2023-08-20T13:12:15;15;14;
47079;PMS5003;33067;49.296;14.470;2023-08-20T13:14:41;14;14;
47079;PMS5003;33067;49.296;14.470;2023-08-20T13:17:07;15;14;
47079;PMS5003;33067;49.296;14.470;2023-08-20T13:19:32;12;11;
47079;PMS5003;33067;49.296;14.470;2023-08-20T13:21:57;11;11;
47079;PMS5003;33067;49.296;14.470;2023-08-20T13:24:22;13;13;
47079;PMS5003;33067;49.296;14.470;2023-08-20T13:26:48;14;12;
47079;PMS5003;33067;49.296;14.470;2023-08-20T13:29:13;12;12;
47079;PMS5003;33067;49.296;14.470;2023-08-20T13:31:39;11;11;
47079;PMS5003;33067;49.296;14.470;2023-08-20T13:34:04;10;10;
47079;PMS5003;33067;49.296;14.470;2023-08-20T13:36:29;13;13;
47079;PMS5003;33067;49.296;14.470;2023-08-20T13:38:55;13;12;
47079;PMS5003;33067;49.296;14.470;2023-08-20T13:41:20;12;12;
47079;PMS5003;33067;49.296;14.470;2023-08-20T13:43:45;14;14;
47079;PMS5003;33067;49.296;14.470;2023-08-20T13:46:11;13;13;
47079;PMS5003;33067;49.296;14.470;2023-08-20T13:48:36;16;15;
47079;PMS5003;33067;49.296;14.470;2023-08-20T13:51:02;16;16;
47079;PMS5003;33067;49.296;14.470;2023-08-20T13:53:27;14;14;
47079;PMS5003;33067;49.296;14.470;2023-08-20T13:55:53;13;12;
47079;PMS5003;33067;49.296;14.470;2023-08-20T13:58:18;16;15;
47079;PMS5003;33067;49.296;14.470;2023-08-20T14:00:43;15;15;
47079;PMS5003;33067;49.296;14.470;2023-08-20T14:03:09;16;16;
47079;PMS5003;33067;49.296;14.470;2023-08-20T14:05:34;15;15;
47079;PMS5003;33067;49.296;14.470;2023-08-20T14:07:59;17;17;
47079;PMS5003;33067;49.296;14.470;2023-08-20T14:10:25;17;17;
47079;PMS5003;33067;49.296;14.470;2023-08-20T14:12:51;16;14;
47079;PMS5003;33067;49.296;14.470;2023-08-20T14:15:17;12;10;
47079;PMS5003;33067;49.296;14.470;2023-08-20T14:17:42;15;14;
47079;PMS5003;33067;49.296;14.470;2023-08-20T14:20:08;14;14;
47079;PMS5003;33067;49.296;14.470;2023-08-20T14:22:33;13;13;
47079;PMS5003;33067;49.296;14.470;2023-08-20T14:24:59;14;14;
47079;PMS5003;33067;49.296;14.470;2023-08-20T14:27:24;14;14;
47079;PMS5003;33067;49.296;14.470;2023-08-20T14:29:50;12;12;
47079;PMS5003;33067;49.296;14.470;2023-08-20T14:32:15;14;13;
47079;PMS5003;33067;49.296;14.470;2023-08-20T14:34:41;16;13;
47079;PMS5003;33067;49.296;14.470;2023-08-20T14:37:06;12;12;
47079;PMS5003;33067;49.296;14.470;2023-08-20T14:39:32;17;15;
47079;PMS5003;33067;49.296;14.470;2023-08-20T14:41:57;13;11;
47079;PMS5003;33067;49.296;14.470;2023-08-20T14:44:23;15;13;
47079;PMS5003;33067;49.296;14.470;2023-08-20T14:46:48;15;15;
47079;PMS5003;33067;49.296;14.470;2023-08-20T14:49:15;14;14;
47079;PMS5003;33067;49.296;14.470;2023-08-20T14:51:39;15;15;
47079;PMS5003;33067;49.296;14.470;2023-08-20T14:54:05;12;12;
47079;PMS5003;33067;49.296;14.470;2023-08-20T14:56:30;14;14;
47079;PMS5003;33067;49.296;14.470;2023-08-20T14:58:55;14;13;
47079;PMS5003;33067;49.296;14.470;2023-08-20T15:01:21;15;15;
47079;PMS5003;33067;49.296;14.470;2023-08-20T15:03:46;13;13;
47079;PMS5003;33067;49.296;14.470;2023-08-20T15:06:11;15;13;
47079;PMS5003;33067;49.296;14.470;2023-08-20T15:08:37;15;15;
47079;PMS5003;33067;49.296;14.470;2023-08-20T15:11:02;14;14;
47079;PMS5003;33067;49.296;14.470;2023-08-20T15:13:28;12;12;
47079;PMS5003;33067;49.296;14.470;2023-08-20T15:15:53;15;13;
47079;PMS5003;33067;49.296;14.470;2023-08-20T15:18:18;13;13;
47079;PMS5003;33067;49.296;14.470;2023-08-20T15:20:44;14;14;
47079;PMS5003;33067;49.296;14.470;2023-08-20T15:23:09;12;12;
47079;PMS5003;33067;49.296;14.470;2023-08-20T15:25:35;16;14;
47079;PMS5003;33067;49.296;14.470;2023-08-20T15:28:00;14;12;
47079;PMS5003;33067;49.296;14.470;2023-08-20T15:30:26;11;11;
47079;PMS5003;33067;49.296;14.470;2023-08-20T15:32:51;18;15;
47079;PMS5003;33067;49.296;14.470;2023-08-20T15:35:17;16;16;
47079;PMS5003;33067;49.296;14.470;2023-08-20T15:37:42;14;14;
47079;PMS5003;33067;49.296;14.470;2023-08-20T15:40:08;15;15;
47079;PMS5003;33067;49.296;14.470;2023-08-20T15:42:33;13;13;
47079;PMS5003;33067;49.296;14.470;2023-08-20T15:44:58;14;13;
47079;PMS5003;33067;49.296;14.470;2023-08-20T15:47:24;13;13;
47079;PMS5003;33067;49.296;14.470;2023-08-20T15:49:49;13;13;
47079;PMS5003;33067;49.296;14.470;2023-08-20T15:52:15;14;13;
47079;PMS5003;33067;49.296;14.470;2023-08-20T15:54:40;15;15;
47079;PMS5003;33067;49.296;14.470;2023-08-20T15:57:06;16;14;
47079;PMS5003;33067;49.296;14.470;2023-08-20T15:59:31;18;16;
47079;PMS5003;33067;49.296;14.470;2023-08-20T16:01:57;14;14;
47079;PMS5003;33067;49.296;14.470;2023-08-20T16:04:22;14;14;